Time;durP1;ratioP1;P1;durP2;ratioP2;P2;SDS_P1;SDS_P2;PMS_P1;PMS_P2;Temp;Humidity;BMP_temperature;BMP_pressure;BME280_temperature;BME280_humidity;BME280_pressure;Samples;Min_cycle;Max_cycle;Signal;HPM_P1;HPM_P2
2021/11/11 00:01:59;;;;;;;47.20;16.45;;;;;;;;;;5007089;28;20053;-88
2021/11/11 00:04:24;;;;;;;36.15;16.35;;;;;;;;;;5006473;28;20020;-89
2021/11/11 00:06:50;;;;;;;32.38;14.43;;;;;;;;;;5004190;28;20021;-88
2021/11/11 00:09:15;;;;;;;28.85;12.50;;;;;;;;;;4990369;28;20374;-88
2021/11/11 00:11:42;;;;;;;27.25;13.27;;;;;;;;;;4996866;28;20057;-88
2021/11/11 00:14:07;;;;;;;31.48;12.25;;;;;;;;;;4990782;28;20022;-87
2021/11/11 00:16:33;;;;;;;27.80;11.48;;;;;;;;;;5006061;28;20030;-89
2021/11/11 00:18:58;;;;;;;25.27;12.77;;;;;;;;;;4991736;28;20061;-89
2021/11/11 00:21:23;;;;;;;27.58;13.07;;;;;;;;;;4990310;28;20498;-88
2021/11/11 00:23:49;;;;;;;25.70;12.55;;;;;;;;;;4990332;28;20022;-89
2021/11/11 00:26:14;;;;;;;32.10;12.75;;;;;;;;;;4979500;28;20165;-87
2021/11/11 00:28:39;;;;;;;26.25;13.40;;;;;;;;;;4992104;28;20053;-88
2021/11/11 00:31:05;;;;;;;30.45;14.43;;;;;;;;;;4991483;28;20021;-89
2021/11/11 00:33:30;;;;;;;31.88;13.73;;;;;;;;;;4991253;28;20513;-88
2021/11/11 00:35:56;;;;;;;28.95;13.32;;;;;;;;;;4990296;28;20022;-88
2021/11/11 00:38:21;;;;;;;29.77;13.60;;;;;;;;;;4991598;28;20097;-87
2021/11/11 00:40:59;;;;;;;;;;;;;;;;;;;;;
2021/11/11 00:43:34;;;;;;;32.92;12.10;;;;;;;;;;4989438;28;20044;-89
2021/11/11 00:46:02;;;;;;;32.08;12.63;;;;;;;;;;4992563;28;20026;-88
2021/11/11 00:48:28;;;;;;;28.48;13.48;;;;;;;;;;4988524;28;20076;-89
2021/11/11 00:51:03;;;;;;;35.25;13.65;;;;;;;;;;4988806;28;20485;-89
2021/11/11 00:53:29;;;;;;;34.92;13.05;;;;;;;;;;4989163;28;20045;-89
2021/11/11 00:55:54;;;;;;;26.30;12.23;;;;;;;;;;4987017;28;20558;-86
2021/11/11 00:58:38;;;;;;;31.35;12.88;;;;;;;;;;4990830;28;20458;-89
2021/11/11 01:01:03;;;;;;;32.53;12.20;;;;;;;;;;4987907;28;20031;-89
2021/11/11 01:03:51;;;;;;;34.55;13.00;;;;;;;;;;4988548;28;20513;-88
2021/11/11 01:06:19;;;;;;;29.45;12.10;;;;;;;;;;4987576;28;20041;-89
2021/11/11 01:08:50;;;;;;;31.95;14.30;;;;;;;;;;4987535;28;20085;-88
2021/11/11 01:11:16;;;;;;;25.65;12.75;;;;;;;;;;4988344;28;20022;-89
2021/11/11 01:13:47;;;;;;;32.22;12.85;;;;;;;;;;4987686;28;20037;-88
2021/11/11 01:16:13;;;;;;;29.85;13.60;;;;;;;;;;4986252;28;20217;-89
2021/11/11 01:18:38;;;;;;;25.42;12.23;;;;;;;;;;5014311;22;20095;-65
2021/11/11 01:21:04;;;;;;;34.80;13.73;;;;;;;;;;4986153;28;20030;-65
2021/11/11 01:23:29;;;;;;;30.08;13.05;;;;;;;;;;4987957;28;20094;-65
2021/11/11 01:25:54;;;;;;;36.58;13.02;;;;;;;;;;4977403;28;20050;-65
2021/11/11 01:28:19;;;;;;;27.52;12.73;;;;;;;;;;4990817;28;20026;-65
2021/11/11 01:30:45;;;;;;;28.42;13.15;;;;;;;;;;4979498;28;20033;-65
2021/11/11 01:33:12;;;;;;;26.42;12.68;;;;;;;;;;4981896;28;20109;-65
2021/11/11 01:35:37;;;;;;;31.52;13.30;;;;;;;;;;4989436;28;20372;-65
2021/11/11 01:38:02;;;;;;;33.35;12.57;;;;;;;;;;4992063;28;20033;-65
2021/11/11 01:40:28;;;;;;;30.23;13.23;;;;;;;;;;4979021;28;20081;-65
2021/11/11 01:42:54;;;;;;;31.65;14.00;;;;;;;;;;4972099;28;20026;-65
2021/11/11 01:45:23;;;;;;;35.55;13.30;;;;;;;;;;4972331;28;20019;-65
2021/11/11 01:47:48;;;;;;;28.52;12.18;;;;;;;;;;4972377;28;20058;-65
2021/11/11 01:50:13;;;;;;;33.95;11.20;;;;;;;;;;4973980;28;20595;-65
2021/11/11 01:52:40;;;;;;;31.88;12.98;;;;;;;;;;4972704;28;20082;-65
2021/11/11 01:55:05;;;;;;;25.52;11.45;;;;;;;;;;4977061;28;20018;-65
2021/11/11 01:57:31;;;;;;;28.95;13.68;;;;;;;;;;4982115;28;20173;-65
2021/11/11 01:59:56;;;;;;;36.42;13.93;;;;;;;;;;4982888;28;20474;-65
2021/11/11 02:02:25;;;;;;;33.45;13.55;;;;;;;;;;4983512;28;20027;-65
2021/11/11 02:04:50;;;;;;;33.70;13.77;;;;;;;;;;4972378;28;20010;-65
2021/11/11 02:07:16;;;;;;;35.25;14.48;;;;;;;;;;4974891;28;20034;-64
2021/11/11 02:09:41;;;;;;;29.25;12.27;;;;;;;;;;4980721;28;20023;-65
2021/11/11 02:12:06;;;;;;;33.97;13.23;;;;;;;;;;4971447;28;20046;-65
2021/11/11 02:14:32;;;;;;;31.45;13.38;;;;;;;;;;4975760;28;20081;-65
2021/11/11 02:16:57;;;;;;;30.55;13.73;;;;;;;;;;4973353;28;20165;-65
2021/11/11 02:19:22;;;;;;;32.92;13.68;;;;;;;;;;4986185;28;20116;-65
2021/11/11 02:21:54;;;;;;;37.28;13.30;;;;;;;;;;4987999;28;20022;-65
2021/11/11 02:24:20;;;;;;;33.05;12.23;;;;;;;;;;4987650;28;20073;-65
2021/11/11 02:26:45;;;;;;;31.70;12.98;;;;;;;;;;4971758;28;20023;-65
2021/11/11 02:29:10;;;;;;;30.17;13.07;;;;;;;;;;4971570;28;20058;-65
2021/11/11 02:31:36;;;;;;;36.17;14.45;;;;;;;;;;4974885;28;20047;-65
2021/11/11 02:34:01;;;;;;;36.92;14.57;;;;;;;;;;4971753;28;20023;-65
2021/11/11 02:36:26;;;;;;;33.60;14.70;;;;;;;;;;4971635;28;20019;-65
2021/11/11 02:38:52;;;;;;;25.73;11.77;;;;;;;;;;4979271;28;20026;-65
2021/11/11 02:41:17;;;;;;;32.22;13.95;;;;;;;;;;4989606;28;20076;-65
2021/11/11 02:43:44;;;;;;;32.33;14.00;;;;;;;;;;5001574;28;20029;-65
2021/11/11 02:46:09;;;;;;;28.23;12.93;;;;;;;;;;4985704;28;20029;-65
2021/11/11 02:48:34;;;;;;;27.45;11.00;;;;;;;;;;4982246;28;20026;-65
2021/11/11 02:50:59;;;;;;;29.80;13.13;;;;;;;;;;4971467;28;20022;-65
2021/11/11 02:53:25;;;;;;;27.60;12.95;;;;;;;;;;4979787;28;20498;-66
2021/11/11 02:55:50;;;;;;;38.03;14.23;;;;;;;;;;4971342;28;20030;-65
2021/11/11 02:58:16;;;;;;;30.45;12.60;;;;;;;;;;4972415;28;20507;-65
2021/11/11 03:00:47;;;;;;;31.88;12.02;;;;;;;;;;4985933;28;20050;-65
2021/11/11 03:03:12;;;;;;;;;;;;;;;;;;4986359;28;20027;-65
2021/11/11 03:05:37;;;;;;;32.85;13.00;;;;;;;;;;4973169;28;20298;-65
2021/11/11 03:08:03;;;;;;;35.00;14.20;;;;;;;;;;4971493;28;20015;-65
2021/11/11 03:10:29;;;;;;;32.33;13.85;;;;;;;;;;4971217;28;20172;-65
2021/11/11 03:12:55;;;;;;;34.42;14.27;;;;;;;;;;4971334;28;20101;-64
2021/11/11 03:15:20;;;;;;;30.52;14.05;;;;;;;;;;4974440;28;20046;-65
2021/11/11 03:17:46;;;;;;;34.55;14.45;;;;;;;;;;4987794;28;20084;-65
2021/11/11 03:20:12;;;;;;;36.55;14.82;;;;;;;;;;4987385;28;20106;-65
2021/11/11 03:22:37;;;;;;;33.35;14.85;;;;;;;;;;4984178;28;20073;-65
2021/11/11 03:25:03;;;;;;;39.90;15.00;;;;;;;;;;4982734;28;20415;-65
2021/11/11 03:27:28;;;;;;;30.88;13.60;;;;;;;;;;4974406;28;20507;-65
2021/11/11 03:29:54;;;;;;;34.50;14.52;;;;;;;;;;4979418;28;20025;-65
2021/11/11 03:32:21;;;;;;;36.28;13.82;;;;;;;;;;4975098;28;20023;-65
2021/11/11 03:34:46;;;;;;;32.60;15.30;;;;;;;;;;4974564;28;20058;-65
2021/11/11 03:37:12;;;;;;;38.17;15.45;;;;;;;;;;4990125;28;20462;-64
2021/11/11 03:39:38;;;;;;;40.58;14.93;;;;;;;;;;4991416;28;20025;-65
2021/11/11 03:42:03;;;;;;;35.05;14.57;;;;;;;;;;4977320;28;20023;-65
2021/11/11 03:44:29;;;;;;;40.08;15.77;;;;;;;;;;4974814;28;20029;-65
2021/11/11 03:46:55;;;;;;;32.35;13.27;;;;;;;;;;4981279;28;20042;-65
2021/11/11 03:49:21;;;;;;;32.33;13.93;;;;;;;;;;4990387;28;20018;-65
2021/11/11 03:51:47;;;;;;;31.08;13.60;;;;;;;;;;4981210;28;20031;-65
2021/11/11 03:54:13;;;;;;;29.30;13.43;;;;;;;;;;4991969;28;20065;-65
2021/11/11 03:56:40;;;;;;;31.60;13.77;;;;;;;;;;4985357;28;20426;-65
2021/11/11 03:59:05;;;;;;;34.78;12.88;;;;;;;;;;4978801;28;20019;-64
2021/11/11 04:01:31;;;;;;;32.20;14.13;;;;;;;;;;4988314;28;20057;-65
2021/11/11 04:03:56;;;;;;;32.10;15.35;;;;;;;;;;4980555;28;20030;-65
2021/11/11 04:06:21;;;;;;;32.97;14.10;;;;;;;;;;4974328;28;20025;-65
2021/11/11 04:08:46;;;;;;;30.02;13.20;;;;;;;;;;4973807;28;20022;-65
2021/11/11 04:11:11;;;;;;;35.75;14.15;;;;;;;;;;4974190;28;20387;-65
2021/11/11 04:13:37;;;;;;;36.13;14.15;;;;;;;;;;4973751;28;20439;-65
2021/11/11 04:16:02;;;;;;;37.10;14.10;;;;;;;;;;4973445;28;20088;-65
2021/11/11 04:18:28;;;;;;;32.92;13.52;;;;;;;;;;4988633;28;20121;-65
2021/11/11 04:20:53;;;;;;;31.77;14.45;;;;;;;;;;4993374;28;20018;-65
2021/11/11 04:23:20;;;;;;;35.20;14.00;;;;;;;;;;4988601;28;20023;-65
2021/11/11 04:26:02;;;;;;;28.00;13.50;;;;;;;;;;4989611;28;20076;-65
2021/11/11 04:28:30;;;;;;;38.33;16.13;;;;;;;;;;4973995;28;20057;-65
2021/11/11 04:30:59;;;;;;;36.40;13.77;;;;;;;;;;4973237;28;20101;-65
2021/11/11 04:33:25;;;;;;;31.75;14.07;;;;;;;;;;4973481;28;20021;-65
2021/11/11 04:35:56;;;;;;;32.90;14.80;;;;;;;;;;4973138;28;20030;-64
2021/11/11 05:01:46;;;;;;;33.03;13.18;;;;;;;;;;4981758;28;20073;-65
2021/11/11 05:04:11;;;;;;;;;;;;;;;;;;4976224;28;20109;-65
2021/11/11 05:06:37;;;;;;;40.78;13.93;;;;;;;;;;4972522;28;19997;-65
2021/11/11 05:09:02;;;;;;;36.22;15.20;;;;;;;;;;4971985;28;20391;-65
2021/11/11 05:11:27;;;;;;;36.17;15.35;;;;;;;;;;4972269;28;20170;-65
2021/11/11 05:13:53;;;;;;;33.45;15.82;;;;;;;;;;4972948;28;20022;-65
2021/11/11 05:16:18;;;;;;;40.30;16.33;;;;;;;;;;4976472;28;20026;-65
2021/11/11 05:18:43;;;;;;;33.15;14.40;;;;;;;;;;4972698;28;20052;-65
2021/11/11 05:21:09;;;;;;;31.80;13.77;;;;;;;;;;4987784;28;20383;-65
2021/11/11 05:23:34;;;;;;;41.25;14.75;;;;;;;;;;4983366;28;20049;-66
2021/11/11 05:25:59;;;;;;;32.40;14.75;;;;;;;;;;4972608;28;20018;-65
2021/11/11 05:28:24;;;;;;;44.35;15.20;;;;;;;;;;4972389;28;20019;-64
2021/11/11 05:30:50;;;;;;;32.67;14.50;;;;;;;;;;4972051;28;20014;-65
2021/11/11 05:33:15;;;;;;;38.25;15.73;;;;;;;;;;4972416;28;20464;-65
2021/11/11 05:35:40;;;;;;;32.60;14.65;;;;;;;;;;4972091;28;20022;-66
2021/11/11 05:38:05;;;;;;;36.03;15.98;;;;;;;;;;4975550;28;20031;-65
2021/11/11 05:40:32;;;;;;;46.67;17.35;;;;;;;;;;4985586;28;20031;-65
2021/11/11 05:42:57;;;;;;;38.25;16.90;;;;;;;;;;4973984;28;20031;-65
2021/11/11 05:45:22;;;;;;;38.03;15.93;;;;;;;;;;4972087;28;20029;-65
2021/11/11 05:47:48;;;;;;;38.20;16.23;;;;;;;;;;4972088;28;20031;-65
2021/11/11 05:50:14;;;;;;;37.15;15.60;;;;;;;;;;4971702;28;20061;-65
2021/11/11 05:52:39;;;;;;;35.00;15.48;;;;;;;;;;4971861;28;20023;-65
2021/11/11 05:55:05;;;;;;;37.05;14.38;;;;;;;;;;4981448;28;20038;-65
2021/11/11 05:57:31;;;;;;;35.70;15.65;;;;;;;;;;4990540;28;20475;-65
2021/11/11 05:59:56;;;;;;;39.90;14.68;;;;;;;;;;4984322;28;20113;-65
2021/11/11 06:02:21;;;;;;;41.70;16.45;;;;;;;;;;4988694;28;20021;-65
2021/11/11 06:04:47;;;;;;;36.30;14.77;;;;;;;;;;4989028;28;20026;-65
2021/11/11 06:07:13;;;;;;;34.55;13.25;;;;;;;;;;4972088;28;20210;-65
2021/11/11 06:09:38;;;;;;;27.80;12.13;;;;;;;;;;4971125;28;20031;-65
2021/11/11 06:12:04;;;;;;;36.00;13.82;;;;;;;;;;4971261;28;20069;-65
2021/11/11 06:14:29;;;;;;;30.23;14.43;;;;;;;;;;4975114;28;20524;-65
2021/11/11 06:16:54;;;;;;;39.20;15.40;;;;;;;;;;4983858;28;20053;-65
2021/11/11 06:19:19;;;;;;;31.95;13.50;;;;;;;;;;4980666;28;20050;-65
2021/11/11 06:21:45;;;;;;;34.80;13.73;;;;;;;;;;4987974;28;20356;-65
2021/11/11 06:24:10;;;;;;;38.17;16.23;;;;;;;;;;4976455;28;20069;-65
2021/11/11 06:26:36;;;;;;;31.58;14.02;;;;;;;;;;4995674;28;20032;-65
2021/11/11 06:29:03;;;;;;;30.30;14.35;;;;;;;;;;4988873;28;20731;-65
2021/11/11 06:31:28;;;;;;;32.70;14.75;;;;;;;;;;4971650;28;20030;-65
2021/11/11 06:33:54;;;;;;;37.67;15.73;;;;;;;;;;4982253;28;20038;-65
2021/11/11 06:36:19;;;;;;;35.90;15.68;;;;;;;;;;4980405;28;20395;-65
2021/11/11 06:38:44;;;;;;;44.05;15.85;;;;;;;;;;4971042;28;20030;-65
2021/11/11 06:41:10;;;;;;;32.88;14.48;;;;;;;;;;4971254;28;20118;-65
2021/11/11 06:43:36;;;;;;;37.55;13.98;;;;;;;;;;4981315;28;20070;-65
2021/11/11 06:46:01;;;;;;;29.85;13.85;;;;;;;;;;4986881;28;20018;-65
2021/11/11 06:48:27;;;;;;;38.53;14.48;;;;;;;;;;4974941;28;20076;-65
2021/11/11 06:50:52;;;;;;;38.78;16.13;;;;;;;;;;4971713;28;20113;-65
2021/11/11 06:53:19;;;;;;;35.45;15.05;;;;;;;;;;4986975;28;20026;-65
2021/11/11 06:55:46;;;;;;;38.85;15.93;;;;;;;;;;4981927;28;20491;-65
2021/11/11 06:58:12;;;;;;;39.10;17.08;;;;;;;;;;4986315;28;20113;-65
2021/11/11 07:00:39;;;;;;;35.97;15.20;;;;;;;;;;4979176;28;20023;-65
2021/11/11 07:03:04;;;;;;;42.00;14.43;;;;;;;;;;4987497;28;20483;-65
2021/11/11 07:05:30;;;;;;;36.97;16.10;;;;;;;;;;4973085;28;20050;-65
2021/11/11 07:07:55;;;;;;;34.90;15.07;;;;;;;;;;4984672;28;20054;-65
2021/11/11 07:10:20;;;;;;;32.15;14.15;;;;;;;;;;4987195;28;20025;-65
2021/11/11 07:12:45;;;;;;;29.73;13.60;;;;;;;;;;4987155;28;20105;-65
2021/11/11 07:15:11;;;;;;;35.47;13.43;;;;;;;;;;4988969;28;20382;-65
2021/11/11 07:17:37;;;;;;;36.58;13.38;;;;;;;;;;4987966;28;20138;-65
2021/11/11 07:20:04;;;;;;;34.00;14.32;;;;;;;;;;4986652;28;20491;-65
2021/11/11 07:22:30;;;;;;;33.05;13.35;;;;;;;;;;4991758;28;20046;-65
2021/11/11 07:24:55;;;;;;;33.55;14.23;;;;;;;;;;4985360;28;20443;-65
2021/11/11 07:27:21;;;;;;;29.60;12.02;;;;;;;;;;4990555;28;20027;-65
2021/11/11 07:29:46;;;;;;;35.92;12.43;;;;;;;;;;4981080;28;20030;-65
2021/11/11 07:32:11;;;;;;;37.38;15.82;;;;;;;;;;4994639;28;20068;-65
2021/11/11 07:34:36;;;;;;;42.97;15.48;;;;;;;;;;4990121;28;20463;-66
2021/11/11 07:37:03;;;;;;;31.02;11.90;;;;;;;;;;4982861;28;20037;-65
2021/11/11 07:39:28;;;;;;;34.33;12.48;;;;;;;;;;4987421;28;20439;-65
2021/11/11 07:41:53;;;;;;;35.35;14.60;;;;;;;;;;4989496;28;20378;-65
2021/11/11 07:44:18;;;;;;;31.77;13.23;;;;;;;;;;4989492;28;20065;-65
2021/11/11 07:46:43;;;;;;;34.72;11.27;;;;;;;;;;4986792;28;20032;-65
2021/11/11 07:49:10;;;;;;;26.13;12.90;;;;;;;;;;4989919;28;20121;-65
2021/11/11 07:51:35;;;;;;;40.08;14.15;;;;;;;;;;4993222;28;20018;-65
2021/11/11 07:54:02;;;;;;;27.33;12.00;;;;;;;;;;4993209;28;20486;-65
2021/11/11 07:56:28;;;;;;;33.30;14.02;;;;;;;;;;4989698;28;20022;-65
2021/11/11 07:58:55;;;;;;;27.42;9.82;;;;;;;;;;4993038;28;20471;-66
2021/11/11 08:01:20;;;;;;;23.33;11.95;;;;;;;;;;4987799;28;20034;-65
2021/11/11 08:03:46;;;;;;;28.00;14.00;;;;;;;;;;4993272;28;20017;-65
2021/11/11 08:06:11;;;;;;;32.63;12.13;;;;;;;;;;4983185;28;20014;-65
2021/11/11 08:08:37;;;;;;;30.23;12.10;;;;;;;;;;4993648;28;20391;-65
2021/11/11 08:11:02;;;;;;;26.85;13.80;;;;;;;;;;4991998;28;20442;-66
2021/11/11 08:13:27;;;;;;;29.83;12.18;;;;;;;;;;4993287;28;20463;-65
2021/11/11 08:15:53;;;;;;;25.40;9.68;;;;;;;;;;4992993;28;20018;-65
2021/11/11 08:18:18;;;;;;;26.80;12.18;;;;;;;;;;4984480;28;20038;-65
2021/11/11 08:20:43;;;;;;;27.85;10.73;;;;;;;;;;4973422;28;20022;-65
2021/11/11 08:23:08;;;;;;;24.85;12.00;;;;;;;;;;4986181;28;20026;-65
2021/11/11 08:25:34;;;;;;;28.02;11.05;;;;;;;;;;4988661;28;20025;-65
2021/11/11 08:27:59;;;;;;;20.13;7.55;;;;;;;;;;4991342;28;20018;-65
2021/11/11 08:30:25;;;;;;;25.80;12.48;;;;;;;;;;4992556;28;20026;-65
2021/11/11 08:32:51;;;;;;;34.72;13.45;;;;;;;;;;4992594;28;20029;-66
2021/11/11 08:35:17;;;;;;;22.33;9.43;;;;;;;;;;4992765;28;20041;-66
2021/11/11 08:37:43;;;;;;;34.97;12.75;;;;;;;;;;4992761;28;20019;-66
2021/11/11 08:40:09;;;;;;;33.17;11.63;;;;;;;;;;4973866;28;20109;-66
2021/11/11 08:42:34;;;;;;;32.80;12.43;;;;;;;;;;4981433;28;20075;-66
2021/11/11 08:45:00;;;;;;;34.15;11.93;;;;;;;;;;4992674;28;20383;-66
2021/11/11 08:47:25;;;;;;;32.33;12.05;;;;;;;;;;4992384;28;20048;-66
2021/11/11 08:49:52;;;;;;;24.45;11.38;;;;;;;;;;4992341;28;20025;-66
2021/11/11 08:52:18;;;;;;;43.25;14.10;;;;;;;;;;4992041;28;20037;-66
2021/11/11 08:54:43;;;;;;;20.85;10.80;;;;;;;;;;4985056;28;20396;-66
2021/11/11 08:57:09;;;;;;;24.52;12.13;;;;;;;;;;4990589;28;20018;-66
2021/11/11 08:59:34;;;;;;;23.45;11.98;;;;;;;;;;4987776;28;20390;-66
2021/11/11 09:02:00;;;;;;;23.20;12.60;;;;;;;;;;4990075;28;20459;-66
2021/11/11 09:04:25;;;;;;;26.17;12.80;;;;;;;;;;4992266;28;20497;-66
2021/11/11 09:06:50;;;;;;;25.90;10.98;;;;;;;;;;4992357;28;20022;-66
2021/11/11 09:09:16;;;;;;;21.83;8.13;;;;;;;;;;4991988;28;20775;-66
2021/11/11 09:11:42;;;;;;;20.10;10.52;;;;;;;;;;4992172;28;20026;-65
2021/11/11 09:14:08;;;;;;;28.30;10.90;;;;;;;;;;4973869;28;20062;-66
2021/11/11 09:16:33;;;;;;;20.35;8.80;;;;;;;;;;4980879;28;20537;-66
2021/11/11 09:18:59;;;;;;;11.95;5.72;;;;;;;;;;4991919;28;20092;-66
2021/11/11 09:21:26;;;;;;;28.33;10.75;;;;;;;;;;4991461;28;20018;-66
2021/11/11 09:23:51;;;;;;;24.48;11.93;;;;;;;;;;4991993;28;20391;-66
2021/11/11 09:26:17;;;;;;;16.75;9.63;;;;;;;;;;4992098;28;20410;-66
2021/11/11 09:28:42;;;;;;;12.73;6.32;;;;;;;;;;4991404;28;20467;-66
2021/11/11 09:31:09;;;;;;;21.75;11.98;;;;;;;;;;4989779;28;20023;-66
2021/11/11 09:33:35;;;;;;;27.10;13.48;;;;;;;;;;4990896;28;20474;-66
2021/11/11 09:36:00;;;;;;;25.98;11.82;;;;;;;;;;4991583;28;20022;-66
2021/11/11 09:38:26;;;;;;;24.80;12.20;;;;;;;;;;4991626;28;20030;-66
2021/11/11 09:40:52;;;;;;;13.60;7.15;;;;;;;;;;4991420;28;20023;-66
2021/11/11 09:43:17;;;;;;;42.08;8.05;;;;;;;;;;4991311;28;20026;-66
2021/11/11 09:45:44;;;;;;;19.13;9.57;;;;;;;;;;4991577;28;20101;-66
2021/11/11 09:48:10;;;;;;;24.10;11.95;;;;;;;;;;4985751;28;20033;-66
2021/11/11 09:50:35;;;;;;;20.90;10.23;;;;;;;;;;4991306;28;20026;-66
2021/11/11 09:53:07;;;;;;;22.90;10.48;;;;;;;;;;4991788;28;20026;-66
2021/11/11 09:58:37;;;;;;;24.42;13.45;;;;;;;;;;4989277;28;20028;-66
2021/11/11 10:01:03;;;;;;;20.83;12.02;;;;;;;;;;4988548;28;20018;-66
2021/11/11 10:03:29;;;;;;;24.10;12.70;;;;;;;;;;4987045;28;20038;-66
2021/11/11 10:05:54;;;;;;;25.17;12.10;;;;;;;;;;4972006;28;20106;-66
2021/11/11 10:08:37;;;;;;;28.65;12.25;;;;;;;;;;4971757;28;20023;-66
2021/11/11 10:11:04;;;;;;;12.50;6.15;;;;;;;;;;4971652;28;20022;-66
2021/11/11 10:13:30;;;;;;;27.63;11.32;;;;;;;;;;4971807;28;20027;-66
2021/11/11 10:16:04;;;;;;;23.63;9.93;;;;;;;;;;4971762;28;20101;-66
2021/11/11 10:18:39;;;;;;;16.80;7.68;;;;;;;;;;4979742;28;20057;-66
2021/11/11 10:21:25;;;;;;;19.63;7.90;;;;;;;;;;4985950;28;20018;-66
2021/11/11 10:23:51;;;;;;;23.27;13.10;;;;;;;;;;4988456;28;20029;-66
2021/11/11 10:26:21;;;;;;;29.63;12.77;;;;;;;;;;4991010;28;20374;-67
2021/11/11 10:28:46;;;;;;;26.08;14.27;;;;;;;;;;4991112;28;20022;-67
2021/11/11 10:31:13;;;;;;;23.38;12.73;;;;;;;;;;4988287;28;20022;-67
2021/11/11 10:33:38;;;;;;;23.65;11.75;;;;;;;;;;4988784;28;20022;-67
2021/11/11 10:36:06;;;;;;;19.67;9.82;;;;;;;;;;4991103;28;20044;-64
2021/11/11 10:38:31;;;;;;;22.02;11.80;;;;;;;;;;4987610;28;20092;-64
2021/11/11 10:40:57;;;;;;;26.58;13.10;;;;;;;;;;4992932;28;20472;-65
2021/11/11 10:43:26;;;;;;;28.95;14.13;;;;;;;;;;4994821;28;20022;-67
2021/11/11 10:45:52;;;;;;;17.27;8.30;;;;;;;;;;4991509;28;20268;-65
2021/11/11 10:48:19;;;;;;;28.60;12.75;;;;;;;;;;4981074;28;20084;-67
2021/11/11 10:50:46;;;;;;;26.60;13.00;;;;;;;;;;4994259;28;20014;-67
2021/11/11 10:53:13;;;;;;;23.63;12.07;;;;;;;;;;4994588;28;20475;-65
2021/11/11 10:55:39;;;;;;;27.90;14.15;;;;;;;;;;4990089;28;20488;-64
2021/11/11 10:58:05;;;;;;;28.88;13.52;;;;;;;;;;4993530;28;20025;-64
2021/11/11 11:00:43;;;;;;;30.65;13.70;;;;;;;;;;4992186;28;20455;-64
2021/11/11 11:03:15;;;;;;;25.58;12.13;;;;;;;;;;4990527;28;20121;-65
2021/11/11 11:05:47;;;;;;;29.45;14.70;;;;;;;;;;4992910;28;20472;-64
2021/11/11 11:08:14;;;;;;;32.90;13.05;;;;;;;;;;4994385;28;20464;-65
2021/11/11 11:10:41;;;;;;;28.70;13.57;;;;;;;;;;4993919;28;20022;-65
2021/11/11 11:13:26;;;;;;;25.30;12.23;;;;;;;;;;4976094;28;20495;-67
2021/11/11 11:15:53;;;;;;;25.45;12.95;;;;;;;;;;4974766;28;20023;-67
2021/11/11 11:18:23;;;;;;;15.18;7.53;;;;;;;;;;4980892;28;20041;-65
2021/11/11 11:20:48;;;;;;;30.13;14.90;;;;;;;;;;4978198;28;20402;-67
2021/11/11 11:23:25;;;;;;;29.85;15.35;;;;;;;;;;4974811;28;20019;-65
2021/11/11 11:25:53;;;;;;;34.00;17.27;;;;;;;;;;4974558;28;20023;-65
2021/11/11 11:28:25;;;;;;;30.98;15.65;;;;;;;;;;4977818;28;20093;-64
2021/11/11 11:30:52;;;;;;;31.80;16.42;;;;;;;;;;4993460;28;20057;-67
2021/11/11 11:33:29;;;;;;;40.50;18.70;;;;;;;;;;4993967;28;20023;-65
2021/11/11 11:35:55;;;;;;;35.20;16.92;;;;;;;;;;4993803;28;20015;-65
2021/11/11 11:38:24;;;;;;;33.53;19.48;;;;;;;;;;4992853;28;20029;-67
2021/11/11 11:40:49;;;;;;;35.63;17.23;;;;;;;;;;4993281;28;20026;-67
2021/11/11 11:43:25;;;;;;;36.80;18.05;;;;;;;;;;4993822;28;20033;-67
2021/11/11 11:45:51;;;;;;;34.40;18.42;;;;;;;;;;4985488;28;20022;-67
2021/11/11 11:48:20;;;;;;;34.95;21.30;;;;;;;;;;4974356;28;20022;-65
2021/11/11 11:50:51;;;;;;;33.92;17.20;;;;;;;;;;4973575;28;20030;-65
2021/11/11 11:53:20;;;;;;;36.15;19.60;;;;;;;;;;4976021;28;20503;-65
2021/11/11 12:03:27;;;;;;;44.55;20.90;;;;;;;;;;4987152;28;20042;-67
2021/11/11 12:34:34;;;;;;;38.13;16.88;;;;;;;;;;4978522;28;20025;-67
2021/11/11 12:39:33;;;;;;;37.50;16.58;;;;;;;;;;4979166;28;20504;-66
2021/11/11 12:42:02;;;;;;;39.53;17.52;;;;;;;;;;4997523;28;20038;-66
2021/11/11 12:44:28;;;;;;;41.70;17.65;;;;;;;;;;4983859;28;20025;-67
2021/11/11 12:46:53;;;;;;;34.45;16.90;;;;;;;;;;4973034;28;20098;-66
2021/11/11 12:49:23;;;;;;;37.50;16.92;;;;;;;;;;4985864;28;20019;-66
2021/11/11 12:52:07;;;;;;;43.25;17.52;;;;;;;;;;4988651;28;20022;-66
2021/11/11 12:54:33;;;;;;;43.35;18.38;;;;;;;;;;4976500;28;20101;-67
2021/11/11 12:57:02;;;;;;;41.53;18.27;;;;;;;;;;4992300;28;20110;-66
2021/11/11 12:59:30;;;;;;;38.67;17.75;;;;;;;;;;4992242;28;20065;-67
2021/11/11 13:01:58;;;;;;;36.72;18.30;;;;;;;;;;4989403;28;20026;-67
2021/11/11 13:04:25;;;;;;;40.85;16.75;;;;;;;;;;4991740;28;20101;-67
2021/11/11 13:07:01;;;;;;;47.25;18.85;;;;;;;;;;4989397;28;20014;-67
2021/11/11 13:09:33;;;;;;;42.53;17.63;;;;;;;;;;4992024;28;20106;-68
2021/11/11 13:12:01;;;;;;;36.92;17.02;;;;;;;;;;4974589;28;20026;-67
2021/11/11 13:14:27;;;;;;;41.85;18.38;;;;;;;;;;4972683;28;20022;-67
2021/11/11 13:16:55;;;;;;;31.05;15.52;;;;;;;;;;4972467;28;20103;-67
2021/11/11 13:19:33;;;;;;;38.70;16.48;;;;;;;;;;4982010;28;20033;-67
2021/11/11 13:22:08;;;;;;;36.67;16.80;;;;;;;;;;4991665;28;20728;-67
2021/11/11 13:24:59;;;;;;;36.00;17.40;;;;;;;;;;4991846;28;20019;-67
2021/11/11 13:43:50;;;;;;;47.05;19.67;;;;;;;;;;4972121;28;20077;-67
2021/11/11 13:58:57;;;;;;;54.45;21.75;;;;;;;;;;4991083;28;20033;-67
2021/11/11 14:01:41;;;;;;;51.53;23.85;;;;;;;;;;4987519;28;20377;-67
2021/11/11 14:04:42;;;;;;;51.72;22.92;;;;;;;;;;4991322;28;20513;-67
2021/11/11 16:22:01;;;;;;;74.25;31.25;;;;;;;;;;4973331;28;20065;-66
2021/11/11 16:24:24;;;;;;;67.78;28.15;;;;;;;;;;4973846;28;20050;-66
2021/11/11 16:26:49;;;;;;;74.55;28.02;;;;;;;;;;4973615;28;20029;-66
2021/11/11 16:29:15;;;;;;;62.97;27.60;;;;;;;;;;4973558;28;20089;-65
2021/11/11 16:31:40;;;;;;;76.22;28.67;;;;;;;;;;4976500;28;20058;-66
2021/11/11 16:34:06;;;;;;;76.10;29.33;;;;;;;;;;4990954;28;20030;-66
2021/11/11 16:36:33;;;;;;;75.30;31.00;;;;;;;;;;4992224;28;20312;-66
2021/11/11 16:38:59;;;;;;;66.90;28.10;;;;;;;;;;4991945;28;20022;-66
2021/11/11 16:41:24;;;;;;;68.97;29.80;;;;;;;;;;4992384;28;20102;-66
2021/11/11 16:43:50;;;;;;;65.88;27.80;;;;;;;;;;4992700;28;20380;-66
2021/11/11 16:46:15;;;;;;;80.03;29.35;;;;;;;;;;4991986;28;20097;-66
2021/11/11 16:48:41;;;;;;;65.93;28.77;;;;;;;;;;4992483;28;20550;-66
2021/11/11 16:51:07;;;;;;;67.88;28.20;;;;;;;;;;4990052;28;20028;-66
2021/11/11 16:53:33;;;;;;;65.90;28.17;;;;;;;;;;4972937;28;20019;-66
2021/11/11 16:55:58;;;;;;;70.65;27.42;;;;;;;;;;4984150;28;20026;-66
2021/11/11 16:58:23;;;;;;;67.75;27.67;;;;;;;;;;4992179;28;20637;-66
2021/11/11 17:00:49;;;;;;;67.78;28.45;;;;;;;;;;4985818;28;20523;-66
2021/11/11 17:03:14;;;;;;;63.40;25.77;;;;;;;;;;4992225;28;20076;-65
2021/11/11 17:05:43;;;;;;;63.15;26.08;;;;;;;;;;4991877;28;20022;-66
2021/11/11 17:08:08;;;;;;;64.90;25.23;;;;;;;;;;4990093;28;20033;-66
2021/11/11 17:10:33;;;;;;;65.30;26.20;;;;;;;;;;4972355;28;20412;-66
2021/11/11 17:12:59;;;;;;;64.22;26.67;;;;;;;;;;4972582;28;20380;-66
2021/11/11 17:15:28;;;;;;;63.30;27.48;;;;;;;;;;4972628;28;20021;-66
2021/11/11 17:17:54;;;;;;;63.42;26.55;;;;;;;;;;4972323;28;20476;-66
2021/11/11 17:20:21;;;;;;;60.30;25.27;;;;;;;;;;4989662;28;20030;-65
2021/11/11 17:22:51;;;;;;;69.05;26.20;;;;;;;;;;4991888;28;20434;-66
2021/11/11 17:30:36;;;;;;;61.40;25.98;;;;;;;;;;4987100;28;20021;-66
2021/11/11 17:33:02;;;;;;;57.80;25.38;;;;;;;;;;4991937;28;20022;-66
2021/11/11 17:35:27;;;;;;;57.92;26.80;;;;;;;;;;4991646;28;20022;-66
2021/11/11 17:37:52;;;;;;;62.47;25.92;;;;;;;;;;4991552;28;20062;-66
2021/11/11 17:40:18;;;;;;;68.25;27.08;;;;;;;;;;4991364;28;20093;-65
2021/11/11 17:42:45;;;;;;;69.65;28.75;;;;;;;;;;4983996;28;20643;-65
2021/11/11 17:45:14;;;;;;;74.22;28.85;;;;;;;;;;4972298;28;20026;-65
2021/11/11 17:47:39;;;;;;;72.35;31.40;;;;;;;;;;4972234;28;20027;-65
2021/11/11 17:50:06;;;;;;;84.60;31.25;;;;;;;;;;4971519;28;20353;-66
2021/11/11 17:52:35;;;;;;;70.72;29.10;;;;;;;;;;4972037;28;20023;-65
2021/11/11 17:55:02;;;;;;;73.65;29.38;;;;;;;;;;4974249;28;20153;-66
2021/11/11 17:57:31;;;;;;;66.53;26.95;;;;;;;;;;4989146;28;20379;-66
2021/11/11 17:59:56;;;;;;;64.82;26.48;;;;;;;;;;4985157;28;20030;-66
2021/11/11 18:02:28;;;;;;;60.20;25.25;;;;;;;;;;4988778;28;20657;-66
2021/11/11 18:04:57;;;;;;;67.18;26.65;;;;;;;;;;4992270;28;20015;-66
2021/11/11 18:07:51;;;;;;;61.60;24.52;;;;;;;;;;4992753;28;20033;-65
2021/11/11 18:10:12;;;;;;;58.40;24.90;;;;;;;;;;4988004;28;20472;-66
2021/11/11 18:12:45;;;;;;;63.90;27.15;;;;;;;;;;4990945;28;20022;-66